createdAt,value
2023-04-27T08:51:36.867Z,5.50
2023-04-27T08:54:03.705Z,10.20
2023-04-27T08:56:31.086Z,10.20
2023-04-27T08:58:58.785Z,10.20
2023-04-27T09:01:26.372Z,10.20
2023-04-27T09:06:35.595Z,10.50
2023-04-27T09:09:04.058Z,10.50
2023-04-27T09:11:38.057Z,10.50
2023-04-27T09:14:19.391Z,10.60
2023-04-27T09:16:46.546Z,10.80
2023-04-27T09:19:24.738Z,10.80
2023-04-27T09:21:51.978Z,10.70
2023-04-27T09:24:18.738Z,10.80
2023-04-27T09:26:50.067Z,10.90
2023-04-27T09:29:17.404Z,10.90
2023-04-27T09:31:44.308Z,10.90
2023-04-27T09:34:11.218Z,11.00
2023-04-27T09:36:39.885Z,10.90
2023-04-27T09:39:06.905Z,11.10
2023-04-27T09:41:34.134Z,11.20
2023-04-27T10:01:50.086Z,11.30
2023-04-27T10:04:47.993Z,12.00
2023-04-27T10:07:15.785Z,11.90
2023-04-27T10:12:36.248Z,12.10
2023-04-27T10:15:17.169Z,12.30
2023-04-27T10:17:53.116Z,12.10
2023-04-27T10:20:31.018Z,12.20
2023-04-27T10:22:59.177Z,12.30
2023-04-27T10:25:37.003Z,12.80
2023-04-27T10:28:04.565Z,12.90
2023-04-27T10:38:09.137Z,12.80
2023-04-27T10:40:41.271Z,12.70
2023-04-27T10:43:15.950Z,12.60
2023-04-27T11:05:58.613Z,12.70
2023-04-27T11:08:25.502Z,15.00
2023-04-27T11:10:52.685Z,14.70
2023-04-27T11:13:24.501Z,14.70
2023-04-27T11:15:57.493Z,14.90
2023-04-27T11:18:26.485Z,14.70
2023-04-27T12:03:26.209Z,14.90
2023-04-27T12:05:53.536Z,16.50
2023-04-27T13:02:57.422Z,16.40
2023-04-27T13:25:08.417Z,18.20
2023-04-27T13:32:29.634Z,18.70
2023-04-27T13:34:56.473Z,17.70
2023-04-27T13:37:23.870Z,18.40
2023-04-27T13:39:50.616Z,17.90
2023-04-27T16:02:52.455Z,18.40
2023-04-27T16:05:19.674Z,16.30
2023-04-27T16:07:46.722Z,15.90
2023-04-27T16:10:14.019Z,15.90
2023-04-27T16:12:41.064Z,15.90
2023-04-27T16:15:10.887Z,15.90
2023-04-27T16:17:38.831Z,16.10
2023-04-27T16:20:06.843Z,16.00
2023-04-27T16:22:37.821Z,15.80
2023-04-27T16:32:35.374Z,15.70
2023-04-27T16:35:03.159Z,15.70
2023-04-27T16:37:30.042Z,15.60
2023-04-27T16:39:59.789Z,15.30
2023-04-27T16:42:26.692Z,15.20
2023-04-27T16:44:53.493Z,15.30
2023-04-27T16:47:20.243Z,15.30
2023-04-27T16:49:47.002Z,15.60
2023-04-27T16:52:13.998Z,15.40
2023-04-27T16:54:40.870Z,15.30
2023-04-27T16:57:07.886Z,15.40
2023-04-27T16:59:34.779Z,15.60
2023-04-27T17:02:12.382Z,15.50
2023-04-27T17:04:43.685Z,15.60
2023-04-27T17:07:10.717Z,15.60
2023-04-27T17:09:37.788Z,15.90
2023-04-27T17:12:10.925Z,15.90
2023-04-27T17:14:38.973Z,15.60
2023-04-27T17:17:06.510Z,15.60
2023-04-27T17:19:33.369Z,15.50
2023-04-27T17:22:00.267Z,15.50
2023-04-27T17:24:27.167Z,15.50
2023-04-27T17:26:53.969Z,15.30
2023-04-27T17:29:21.674Z,15.40
2023-04-27T17:31:50.119Z,15.20
2023-04-27T17:34:17.209Z,15.00
2023-04-27T17:36:44.001Z,15.30
